Time;durP1;ratioP1;P1;durP2;ratioP2;P2;SDS_P1;SDS_P2;PMS_P1;PMS_P2;Temp;Humidity;BMP_temperature;BMP_pressure;BME280_temperature;BME280_humidity;BME280_pressure;Samples;Min_cycle;Max_cycle;Signal;HPM_P1;HPM_P2
2023/01/29 00:00:11;;;;;;;1.90;0.98;;;24.60;54.70;;;;;;4941354;28;20196;-55
2023/01/29 00:02:41;;;;;;;2.00;0.85;;;24.60;54.60;;;;;;4915631;29;20287;-60
2023/01/29 00:05:12;;;;;;;2.22;1.00;;;24.70;54.40;;;;;;4915453;29;20200;-57
2023/01/29 00:07:43;;;;;;;1.88;0.95;;;24.70;54.30;;;;;;4915529;29;20696;-49
2023/01/29 00:10:14;;;;;;;3.20;0.95;;;24.70;54.20;;;;;;4915641;29;20208;-49
2023/01/29 00:12:46;;;;;;;2.22;1.08;;;24.60;54.10;;;;;;4915356;29;20200;-49
2023/01/29 00:15:17;;;;;;;3.72;1.00;;;24.60;54.10;;;;;;4920978;29;20227;-48
2023/01/29 00:17:48;;;;;;;1.73;1.08;;;24.60;54.20;;;;;;4934294;28;20228;-47
2023/01/29 00:20:19;;;;;;;1.73;0.90;;;24.60;54.20;;;;;;4933994;29;20208;-48
2023/01/29 00:22:49;;;;;;;3.40;1.00;;;24.70;54.30;;;;;;4933958;29;20204;-49
2023/01/29 00:25:20;;;;;;;3.00;0.93;;;24.70;54.40;;;;;;4933875;29;20203;-49
2023/01/29 00:27:53;;;;;;;4.63;1.15;;;24.70;54.30;;;;;;4934163;29;20219;-50
2023/01/29 00:30:24;;;;;;;1.95;0.82;;;24.70;54.40;;;;;;4934309;29;20207;-48
2023/01/29 00:32:54;;;;;;;2.15;1.00;;;24.80;54.30;;;;;;4934154;29;20668;-47
2023/01/29 00:35:25;;;;;;;4.05;1.15;;;24.80;54.30;;;;;;4933924;29;20275;-49
2023/01/29 00:37:56;;;;;;;4.85;1.00;;;24.80;54.30;;;;;;4933206;29;20292;-49
2023/01/29 00:44:56;;;;;;;2.35;1.05;;;24.90;54.20;;;;;;4933378;29;20196;-49
2023/01/29 02:45:26;;;;;;;3.17;1.25;;;25.80;55.30;;;;;;5967010;23;20205;-45
2023/01/29 02:48:00;;;;;;;1.20;0.73;;;25.80;55.30;;;;;;4946410;28;20219;-46
2023/01/29 02:50:36;;;;;;;4.30;1.30;;;25.80;55.30;;;;;;4935434;29;20196;-46
2023/01/29 02:53:12;;;;;;;3.72;1.02;;;25.90;55.30;;;;;;4935971;29;20202;-46
2023/01/29 02:55:48;;;;;;;2.92;0.88;;;25.90;55.20;;;;;;4935522;29;20226;-45
2023/01/29 02:58:24;;;;;;;2.05;1.00;;;25.90;55.10;;;;;;4934831;29;20211;-46
2023/01/29 03:01:01;;;;;;;4.47;1.10;;;26.00;55.10;;;;;;4935099;29;20203;-45
2023/01/29 03:03:35;;;;;;;1.77;1.17;;;26.00;55.10;;;;;;4934956;29;20202;-46
2023/01/29 03:06:10;;;;;;;2.00;0.85;;;26.10;55.00;;;;;;4935597;29;20203;-44
2023/01/29 03:08:45;;;;;;;2.95;1.20;;;26.10;54.80;;;;;;4935517;29;20227;-42
2023/01/29 03:11:16;;;;;;;1.45;1.02;;;26.10;54.70;;;;;;4935334;29;20202;-44
2023/01/29 03:13:50;;;;;;;2.42;0.80;;;26.20;54.60;;;;;;4934936;29;20222;-46
2023/01/29 03:16:27;;;;;;;1.90;0.88;;;26.20;54.60;;;;;;4935340;29;20235;-49
2023/01/29 03:19:03;;;;;;;1.73;0.80;;;26.30;54.60;;;;;;4935597;29;20219;-49
2023/01/29 03:21:57;;;;;;;2.38;1.00;;;26.30;54.60;;;;;;4935319;29;20203;-43
2023/01/29 03:33:09;;;;;;;2.70;1.10;;;26.50;54.40;;;;;;4934630;29;20220;-47
2023/01/29 03:35:46;;;;;;;1.58;0.95;;;26.50;54.30;;;;;;4934795;29;20234;-46
2023/01/29 03:38:17;;;;;;;1.77;1.00;;;26.50;54.30;;;;;;4935366;29;20560;-46
2023/01/29 03:40:52;;;;;;;2.78;0.85;;;26.50;54.20;;;;;;4935385;29;20210;-46
2023/01/29 03:43:33;;;;;;;1.75;0.82;;;26.60;54.10;;;;;;4935410;29;20210;-46
2023/01/29 04:46:44;;;;;;;2.30;0.90;;;27.10;53.00;;;;;;5435939;23;20313;-46
2023/01/29 04:49:24;;;;;;;3.95;0.93;;;27.10;53.00;;;;;;4932767;29;20222;-45
2023/01/29 04:52:03;;;;;;;4.00;1.13;;;27.10;53.10;;;;;;4930436;29;20200;-45
2023/01/29 04:54:48;;;;;;;3.88;1.65;;;27.10;53.20;;;;;;4932383;29;20199;-46
2023/01/29 04:57:24;;;;;;;3.25;1.17;;;27.10;53.20;;;;;;4926626;29;20243;-49
2023/01/29 05:00:02;;;;;;;3.58;1.00;;;27.10;53.30;;;;;;4933373;29;20198;-48
2023/01/29 05:02:39;;;;;;;4.10;1.00;;;27.10;53.40;;;;;;4932784;29;20344;-51
2023/01/29 05:05:11;;;;;;;3.67;0.93;;;27.10;53.40;;;;;;4913654;29;20675;-47
2023/01/29 05:07:43;;;;;;;1.67;0.80;;;27.10;53.30;;;;;;4931627;29;20222;-48
2023/01/29 05:10:17;;;;;;;2.50;0.77;;;27.10;53.40;;;;;;4928275;29;20191;-47
2023/01/29 05:12:52;;;;;;;1.45;0.90;;;27.20;53.50;;;;;;4931994;29;20196;-50
2023/01/29 05:15:28;;;;;;;4.22;1.02;;;27.10;53.40;;;;;;4932639;29;20218;-49
2023/01/29 05:18:02;;;;;;;3.72;0.80;;;27.10;53.40;;;;;;4932422;29;20223;-49
2023/01/29 05:20:35;;;;;;;3.10;1.00;;;27.10;53.40;;;;;;4933587;29;20194;-49
2023/01/29 05:23:06;;;;;;;2.55;0.95;;;27.20;53.40;;;;;;4932884;29;20203;-46
2023/01/29 05:25:37;;;;;;;4.30;0.80;;;27.20;53.40;;;;;;4935746;29;20195;-48
2023/01/29 05:28:10;;;;;;;2.10;1.00;;;27.20;53.30;;;;;;4939142;29;20226;-47
2023/01/29 05:30:42;;;;;;;1.77;0.75;;;27.20;53.20;;;;;;4938638;29;20210;-47
2023/01/29 05:33:18;;;;;;;3.63;0.80;;;27.20;53.20;;;;;;4938682;29;20210;-48
2023/01/29 05:35:49;;;;;;;2.47;0.70;;;27.20;53.20;;;;;;4938729;29;20227;-49
2023/01/29 05:38:20;;;;;;;2.08;0.80;;;27.20;53.10;;;;;;4939446;29;20222;-50
2023/01/29 05:40:52;;;;;;;2.80;1.05;;;27.10;53.10;;;;;;4939064;29;20207;-48
2023/01/29 05:43:25;;;;;;;1.95;0.98;;;27.10;53.10;;;;;;4939636;29;20278;-51
2023/01/29 05:45:57;;;;;;;1.40;0.82;;;27.20;53.20;;;;;;4941380;23;20701;-48
2023/01/29 05:48:31;;;;;;;1.50;0.60;;;27.10;53.20;;;;;;4921417;29;20215;-46
2023/01/29 05:51:03;;;;;;;1.98;0.70;;;27.10;53.20;;;;;;4920201;29;20207;-47
2023/01/29 05:53:35;;;;;;;1.83;0.80;;;27.10;53.20;;;;;;4920330;29;20201;-48
2023/01/29 05:56:06;;;;;;;1.40;0.90;;;27.20;53.20;;;;;;4919919;29;20240;-46
2023/01/29 05:58:37;;;;;;;2.15;0.90;;;27.10;53.10;;;;;;4920083;29;20585;-45
2023/01/29 06:01:16;;;;;;;2.40;0.93;;;27.20;53.20;;;;;;4919952;29;20204;-46
2023/01/29 06:03:49;;;;;;;1.20;0.90;;;27.10;53.10;;;;;;4919860;29;20196;-45
2023/01/29 06:06:20;;;;;;;2.35;0.82;;;27.10;53.10;;;;;;4920384;29;20211;-46
2023/01/29 06:08:51;;;;;;;1.95;0.70;;;27.10;53.10;;;;;;4919913;29;20583;-47
2023/01/29 06:11:22;;;;;;;2.88;0.95;;;27.10;53.10;;;;;;4919090;29;20215;-47
2023/01/29 06:13:52;;;;;;;1.70;0.77;;;27.10;53.10;;;;;;4919560;29;20195;-47
2023/01/29 06:16:23;;;;;;;2.92;0.88;;;27.10;53.20;;;;;;4918826;29;20297;-48
2023/01/29 06:18:56;;;;;;;3.42;1.08;;;27.10;53.20;;;;;;4906194;29;20220;-48
2023/01/29 06:21:26;;;;;;;2.75;1.40;;;27.10;53.20;;;;;;4919680;29;20809;-44
2023/01/29 06:23:57;;;;;;;2.20;1.30;;;27.20;53.30;;;;;;4919441;29;20200;-49
2023/01/29 06:26:28;;;;;;;2.53;1.13;;;27.10;53.20;;;;;;4919762;29;20657;-49
2023/01/29 06:28:58;;;;;;;2.58;1.30;;;27.10;53.20;;;;;;4919970;29;20311;-46
2023/01/29 06:31:29;;;;;;;3.70;1.50;;;27.20;53.30;;;;;;4919485;29;20208;-49
2023/01/29 06:34:02;;;;;;;2.90;1.50;;;27.20;53.30;;;;;;4919639;29;20200;-48
2023/01/29 06:36:33;;;;;;;4.22;1.60;;;27.20;53.30;;;;;;4917367;29;20255;-47
2023/01/29 06:39:04;;;;;;;4.10;1.88;;;27.20;53.30;;;;;;4930525;29;20228;-46
2023/01/29 06:41:34;;;;;;;2.42;1.30;;;27.20;53.30;;;;;;4936395;29;20210;-47
2023/01/29 06:44:05;;;;;;;3.70;1.30;;;27.20;53.30;;;;;;4936423;29;20203;-46
2023/01/29 06:46:36;;;;;;;2.83;1.10;;;27.20;53.40;;;;;;4921320;29;20580;-45
2023/01/29 06:49:08;;;;;;;1.77;1.05;;;27.20;53.40;;;;;;4917007;29;20231;-50
2023/01/29 06:51:39;;;;;;;2.78;1.35;;;27.20;53.50;;;;;;4916473;29;20675;-45
2023/01/29 06:54:11;;;;;;;3.72;1.38;;;27.20;53.50;;;;;;4916532;29;20498;-45
2023/01/29 06:56:41;;;;;;;2.55;1.48;;;27.20;53.50;;;;;;4916697;29;20726;-44
2023/01/29 06:59:13;;;;;;;2.17;1.30;;;27.20;53.50;;;;;;4916685;29;20619;-44
2023/01/29 07:01:43;;;;;;;3.53;1.27;;;27.20;53.50;;;;;;4916744;29;20275;-44
2023/01/29 07:04:16;;;;;;;1.55;1.05;;;27.20;53.50;;;;;;4916416;29;20207;-45
2023/01/29 07:06:47;;;;;;;2.42;1.27;;;27.20;53.50;;;;;;4916358;29;20207;-50
2023/01/29 07:09:17;;;;;;;3.38;1.48;;;27.20;53.50;;;;;;4916702;29;20383;-46
2023/01/29 07:11:48;;;;;;;1.95;0.90;;;27.20;53.50;;;;;;4916916;29;20208;-46
2023/01/29 07:14:19;;;;;;;3.33;1.45;;;27.20;53.50;;;;;;4916333;29;20204;-48
2023/01/29 07:16:49;;;;;;;2.08;0.98;;;27.20;53.40;;;;;;4916120;29;20236;-48
2023/01/29 07:19:22;;;;;;;2.88;1.10;;;27.20;53.40;;;;;;4916483;29;20227;-44
2023/01/29 07:21:53;;;;;;;1.52;1.33;;;27.30;53.40;;;;;;4916267;29;20291;-45
2023/01/29 07:24:24;;;;;;;1.85;0.98;;;27.20;53.30;;;;;;4915989;29;20208;-50
2023/01/29 07:26:54;;;;;;;2.03;1.05;;;27.20;53.30;;;;;;4915721;29;20204;-47
2023/01/29 07:29:25;;;;;;;2.88;1.35;;;27.20;53.20;;;;;;4915846;29;20199;-47
2023/01/29 07:31:56;;;;;;;1.85;1.20;;;27.20;53.20;;;;;;4916230;29;20208;-44
2023/01/29 07:34:28;;;;;;;2.15;1.40;;;27.20;53.20;;;;;;4916016;29;20200;-48
2023/01/29 07:36:59;;;;;;;1.95;1.08;;;27.20;53.10;;;;;;4915918;29;20257;-46
2023/01/29 07:39:30;;;;;;;1.98;1.02;;;27.20;53.10;;;;;;4916348;29;20208;-47
2023/01/29 07:42:01;;;;;;;1.23;1.10;;;27.20;53.10;;;;;;4916498;29;20215;-48
2023/01/29 07:44:31;;;;;;;1.30;0.85;;;27.20;53.00;;;;;;4916431;29;20204;-45
2023/01/29 07:47:02;;;;;;;2.65;1.10;;;27.20;53.10;;;;;;4916319;29;20657;-45
2023/01/29 07:49:35;;;;;;;2.55;1.13;;;27.20;53.00;;;;;;4915309;29;20574;-48
2023/01/29 07:52:05;;;;;;;2.67;1.20;;;27.20;53.00;;;;;;4915961;29;20204;-46
2023/01/29 07:54:36;;;;;;;3.47;1.25;;;27.20;53.00;;;;;;4916175;29;20234;-50
2023/01/29 07:57:07;;;;;;;1.30;1.00;;;27.20;53.10;;;;;;4915678;29;20239;-47
2023/01/29 07:59:37;;;;;;;1.05;0.93;;;27.20;52.90;;;;;;4915597;29;20200;-48
2023/01/29 08:02:10;;;;;;;2.17;0.98;;;27.20;52.90;;;;;;4915717;29;20201;-47
2023/01/29 08:04:42;;;;;;;1.63;0.95;;;27.10;52.80;;;;;;4915049;29;20196;-46
2023/01/29 08:07:13;;;;;;;1.55;0.80;;;27.20;52.90;;;;;;4915480;29;20200;-49
2023/01/29 08:09:44;;;;;;;1.15;0.88;;;27.10;52.80;;;;;;4915658;29;21055;-49
2023/01/29 08:12:15;;;;;;;1.55;1.10;;;27.20;52.80;;;;;;4915841;29;20227;-47
2023/01/29 08:14:46;;;;;;;2.22;0.98;;;27.10;52.70;;;;;;4915661;29;20211;-49
2023/01/29 08:17:17;;;;;;;0.77;0.77;;;27.10;52.70;;;;;;4915385;29;20232;-44
2023/01/29 08:19:50;;;;;;;1.60;1.00;;;27.10;52.70;;;;;;4915067;29;20196;-45
2023/01/29 08:22:20;;;;;;;2.28;1.10;;;27.10;52.70;;;;;;4915564;29;20253;-43
2023/01/29 08:24:51;;;;;;;2.67;1.05;;;27.10;52.70;;;;;;4915681;29;20215;-47
2023/01/29 08:27:22;;;;;;;1.83;1.00;;;27.00;52.60;;;;;;4915561;29;20587;-46
2023/01/29 08:29:52;;;;;;;1.10;0.88;;;27.00;52.60;;;;;;4915279;29;20210;-48
2023/01/29 08:32:23;;;;;;;1.48;1.10;;;27.00;52.70;;;;;;4915030;29;20652;-44
2023/01/29 08:34:56;;;;;;;1.67;0.98;;;27.00;52.70;;;;;;4915227;29;20204;-44
2023/01/29 08:37:26;;;;;;;1.95;1.13;;;27.00;52.60;;;;;;4915177;29;20246;-47
2023/01/29 08:39:57;;;;;;;1.85;1.20;;;27.00;52.50;;;;;;4915126;29;20200;-43
2023/01/29 08:42:28;;;;;;;2.35;1.00;;;27.00;52.30;;;;;;4909849;29;20208;-44
2023/01/29 08:44:58;;;;;;;6.20;1.38;;;27.00;52.00;;;;;;4913616;29;20208;-44
2023/01/29 08:47:29;;;;;;;5.18;1.20;;;26.90;51.70;;;;;;4914711;29;20227;-47
2023/01/29 08:50:02;;;;;;;2.17;0.98;;;26.90;51.60;;;;;;4913956;29;20661;-44
2023/01/29 08:52:32;;;;;;;2.47;1.30;;;26.80;51.50;;;;;;4924674;29;20215;-45
2023/01/29 08:55:03;;;;;;;1.40;0.90;;;26.80;51.50;;;;;;4933722;29;20207;-47
2023/01/29 08:57:34;;;;;;;3.13;1.13;;;26.70;51.40;;;;;;4932676;29;20224;-46
2023/01/29 09:00:04;;;;;;;2.70;1.25;;;26.70;51.50;;;;;;4928592;29;20200;-45
2023/01/29 09:02:35;;;;;;;3.60;1.10;;;26.70;51.50;;;;;;4913979;29;20207;-44
2023/01/29 09:05:08;;;;;;;2.35;1.08;;;26.60;51.50;;;;;;4913633;29;20197;-46
2023/01/29 09:07:39;;;;;;;2.03;1.20;;;26.60;51.60;;;;;;4913784;29;20625;-44
2023/01/29 09:10:11;;;;;;;1.73;1.00;;;26.60;51.60;;;;;;4914513;29;20200;-44
2023/01/29 09:12:41;;;;;;;4.47;1.60;;;26.50;51.60;;;;;;4912100;29;20196;-43
2023/01/29 09:15:13;;;;;;;2.58;1.23;;;26.50;52.30;;;;;;4914309;29;20208;-43
2023/01/29 09:17:44;;;;;;;2.90;1.40;;;26.50;51.80;;;;;;4913634;29;20235;-43
2023/01/29 09:20:16;;;;;;;2.17;1.30;;;26.50;51.80;;;;;;4913794;29;20259;-44
2023/01/29 09:22:48;;;;;;;2.47;1.35;;;26.50;51.80;;;;;;4913731;29;20208;-43
2023/01/29 09:25:18;;;;;;;1.92;1.00;;;26.40;51.80;;;;;;4913705;29;20687;-44
2023/01/29 09:27:49;;;;;;;5.15;1.48;;;26.50;51.90;;;;;;4913882;29;20220;-43
2023/01/29 09:30:20;;;;;;;1.77;1.13;;;26.40;51.80;;;;;;4913446;29;20204;-45
2023/01/29 09:32:51;;;;;;;1.92;1.00;;;26.40;51.90;;;;;;4913995;29;20599;-46
2023/01/29 09:35:24;;;;;;;3.38;1.20;;;26.40;52.00;;;;;;4914230;29;20571;-45
2023/01/29 09:37:55;;;;;;;3.50;1.00;;;26.40;52.00;;;;;;4922285;29;20251;-44
2023/01/29 09:40:28;;;;;;;2.45;1.00;;;26.40;52.00;;;;;;4932483;29;20202;-44
2023/01/29 09:43:03;;;;;;;2.78;1.58;;;26.30;52.00;;;;;;4932555;29;20200;-49
2023/01/29 09:45:34;;;;;;;2.50;1.40;;;26.30;52.00;;;;;;4925970;29;20203;-46
2023/01/29 09:48:06;;;;;;;2.85;1.50;;;26.30;52.10;;;;;;4913136;29;20253;-47
2023/01/29 09:50:42;;;;;;;2.67;1.20;;;26.20;52.00;;;;;;4913814;29;20772;-48
2023/01/29 09:53:19;;;;;;;3.78;1.40;;;26.20;52.10;;;;;;4913174;29;20202;-47
2023/01/29 09:55:57;;;;;;;3.50;1.48;;;26.20;52.10;;;;;;4914173;29;20208;-51
2023/01/29 09:58:32;;;;;;;4.07;1.40;;;26.20;52.10;;;;;;4913009;29;20232;-48
2023/01/29 10:01:14;;;;;;;2.33;1.08;;;26.20;52.10;;;;;;4913701;29;20571;-45
2023/01/29 10:04:06;;;;;;;2.83;1.15;;;26.20;52.20;;;;;;4913986;29;20205;-46
2023/01/29 10:07:00;;;;;;;3.90;1.50;;;26.20;52.20;;;;;;4912551;29;20208;-49
2023/01/29 10:09:52;;;;;;;3.30;1.50;;;26.20;52.20;;;;;;4913418;29;20200;-53
2023/01/29 10:12:42;;;;;;;3.10;1.48;;;26.10;52.20;;;;;;4916352;29;20192;-47
2023/01/29 10:15:30;;;;;;;1.85;1.10;;;26.20;52.20;;;;;;4916800;29;20637;-43
2023/01/29 10:18:13;;;;;;;5.03;1.58;;;26.10;52.20;;;;;;4916982;29;20243;-48
2023/01/29 10:20:54;;;;;;;3.72;1.25;;;26.10;52.30;;;;;;4917228;29;20600;-45
2023/01/29 10:23:31;;;;;;;3.47;1.30;;;26.00;52.20;;;;;;4917509;29;20208;-46
2023/01/29 10:26:01;;;;;;;1.85;1.27;;;26.10;52.30;;;;;;4917504;29;20287;-52
2023/01/29 10:28:36;;;;;;;2.75;1.00;;;26.00;52.30;;;;;;4917580;29;20683;-48
2023/01/29 10:31:11;;;;;;;1.95;1.10;;;26.00;52.30;;;;;;4917336;29;20226;-48
2023/01/29 10:33:43;;;;;;;2.78;1.05;;;26.00;52.30;;;;;;4917098;29;20211;-45
2023/01/29 10:36:20;;;;;;;2.15;1.27;;;26.00;52.40;;;;;;4917199;29;20207;-44
2023/01/29 10:38:54;;;;;;;3.33;1.30;;;26.00;52.60;;;;;;4917365;29;20232;-46
2023/01/29 10:41:40;;;;;;;4.05;1.40;;;25.90;52.30;;;;;;4917224;29;20670;-46
2023/01/29 10:44:28;;;;;;;3.97;1.55;;;26.00;52.40;;;;;;4917055;29;20200;-46
2023/01/29 10:47:28;;;;;;;3.08;1.02;;;25.90;52.30;;;;;;4917806;29;20313;-50
2023/01/29 10:50:11;;;;;;;3.35;1.40;;;25.90;52.30;;;;;;4916893;29;20201;-44
2023/01/29 10:52:56;;;;;;;1.85;1.17;;;25.90;52.30;;;;;;4916899;29;20228;-49
2023/01/29 10:55:42;;;;;;;3.33;1.45;;;25.90;52.30;;;;;;4916376;29;20676;-46
2023/01/29 10:58:23;;;;;;;1.75;1.02;;;25.90;52.30;;;;;;4916536;29;20242;-46
2023/01/29 11:00:55;;;;;;;1.70;1.10;;;25.90;52.20;;;;;;4916806;29;20200;-49
2023/01/29 11:03:27;;;;;;;2.40;1.23;;;25.80;52.10;;;;;;4917399;29;20205;-44
2023/01/29 11:06:05;;;;;;;1.95;0.95;;;25.80;52.10;;;;;;4916950;29;20672;-45
2023/01/29 11:08:43;;;;;;;2.10;1.02;;;25.80;52.10;;;;;;4904976;29;20752;-47
2023/01/29 11:11:20;;;;;;;3.72;1.27;;;25.80;52.10;;;;;;4905890;29;20197;-45
2023/01/29 11:13:56;;;;;;;3.22;1.17;;;25.70;52.00;;;;;;4907241;29;20291;-45
2023/01/29 11:16:27;;;;;;;1.90;1.08;;;25.70;52.00;;;;;;4907889;29;20223;-47
2023/01/29 11:19:01;;;;;;;2.42;1.30;;;25.70;52.60;;;;;;4905125;29;20225;-44
2023/01/29 11:21:32;;;;;;;1.98;1.27;;;25.70;52.00;;;;;;4905293;29;20656;-47
2023/01/29 11:24:15;;;;;;;1.98;0.95;;;25.70;52.00;;;;;;4905195;29;20208;-50
2023/01/29 11:26:50;;;;;;;2.42;1.05;;;25.70;52.10;;;;;;4905975;29;20657;-45
2023/01/29 11:29:40;;;;;;;2.53;1.00;;;25.70;52.00;;;;;;4905516;29;20216;-47
2023/01/29 11:32:15;;;;;;;2.65;1.05;;;25.60;52.00;;;;;;4906828;29;20196;-49
2023/01/29 11:35:01;;;;;;;1.42;0.90;;;25.60;51.90;;;;;;4905655;29;20203;-46
2023/01/29 11:37:39;;;;;;;1.83;1.20;;;25.60;52.00;;;;;;4906055;29;20214;-44
2023/01/29 11:40:41;;;;;;;1.95;1.10;;;25.60;52.00;;;;;;4906398;29;20212;-52
2023/01/29 11:43:22;;;;;;;1.70;0.70;;;25.50;51.90;;;;;;4899093;29;20211;-46
2023/01/29 11:45:55;;;;;;;1.58;0.80;;;25.50;51.90;;;;;;4906386;29;20204;-49
2023/01/29 11:48:30;;;;;;;1.40;0.90;;;25.50;51.90;;;;;;4915896;29;20223;-46
2023/01/29 11:51:02;;;;;;;1.58;0.90;;;25.50;51.90;;;;;;4915740;29;20726;-46
2023/01/29 11:53:41;;;;;;;2.58;1.00;;;25.50;51.90;;;;;;4915816;29;20192;-47
2023/01/29 11:56:25;;;;;;;2.17;1.00;;;25.40;51.90;;;;;;4915713;29;20207;-47
2023/01/29 11:59:03;;;;;;;2.20;1.00;;;25.40;51.90;;;;;;4915720;29;20236;-47
2023/01/29 12:01:37;;;;;;;1.67;1.05;;;25.40;51.90;;;;;;4913800;29;20196;-48
2023/01/29 12:04:19;;;;;;;1.67;0.90;;;25.40;52.00;;;;;;4915820;29;20203;-47
2023/01/29 12:06:51;;;;;;;1.52;0.70;;;25.40;52.00;;;;;;4915541;29;20227;-52
2023/01/29 12:09:23;;;;;;;1.85;1.10;;;25.30;51.90;;;;;;4914844;29;20242;-50
2023/01/29 12:11:54;;;;;;;1.23;0.75;;;25.30;51.90;;;;;;4914682;29;20220;-46
2023/01/29 12:14:32;;;;;;;2.30;0.90;;;25.30;51.90;;;;;;4915101;29;20660;-49
2023/01/29 12:17:08;;;;;;;2.08;0.98;;;25.30;52.00;;;;;;4914925;29;20210;-50
2023/01/29 12:19:43;;;;;;;1.55;0.95;;;25.30;52.00;;;;;;4915681;29;20223;-47
2023/01/29 12:22:20;;;;;;;1.48;1.13;;;25.30;51.90;;;;;;4915578;29;20833;-44
2023/01/29 12:24:56;;;;;;;1.70;0.82;;;25.30;51.90;;;;;;4915102;29;20735;-45
2023/01/29 12:27:36;;;;;;;1.80;1.08;;;25.30;51.90;;;;;;4914675;29;20220;-47
2023/01/29 12:30:18;;;;;;;2.00;0.95;;;25.20;51.80;;;;;;4915047;29;20200;-48
2023/01/29 12:32:56;;;;;;;1.30;0.80;;;25.20;51.80;;;;;;4915439;29;20593;-44
2023/01/29 12:35:30;;;;;;;1.85;1.02;;;25.20;51.90;;;;;;4914366;29;20199;-46
2023/01/29 12:38:04;;;;;;;1.33;0.93;;;25.10;51.80;;;;;;4915137;29;20844;-44
2023/01/29 12:40:41;;;;;;;0.75;0.55;;;25.10;51.90;;;;;;4915108;29;20203;-48
2023/01/29 12:43:17;;;;;;;1.10;0.82;;;25.10;51.90;;;;;;4915043;29;20199;-44
2023/01/29 12:45:55;;;;;;;0.80;0.60;;;25.10;52.00;;;;;;4915533;29;20203;-49
2023/01/29 12:48:29;;;;;;;0.98;0.80;;;25.10;52.00;;;;;;4914413;29;20580;-48
2023/01/29 12:51:07;;;;;;;1.60;0.70;;;25.10;52.00;;;;;;4914559;29;20207;-49
2023/01/29 12:53:42;;;;;;;1.25;0.82;;;25.10;52.00;;;;;;4914994;29;20204;-47
2023/01/29 12:56:16;;;;;;;1.00;0.80;;;25.10;52.00;;;;;;4915118;29;20211;-46
2023/01/29 12:58:49;;;;;;;1.10;0.70;;;25.10;52.00;;;;;;4914494;29;20238;-49
2023/01/29 13:01:30;;;;;;;1.05;0.75;;;25.10;52.10;;;;;;4914439;29;20770;-45
2023/01/29 13:04:05;;;;;;;1.35;0.80;;;25.10;52.10;;;;;;4914846;29;20283;-48
2023/01/29 13:06:41;;;;;;;1.17;0.80;;;25.00;52.00;;;;;;4914658;29;20204;-47
2023/01/29 13:09:17;;;;;;;1.08;0.57;;;25.00;52.00;;;;;;4913734;29;20218;-49
2023/01/29 13:11:54;;;;;;;0.73;0.73;;;25.00;52.00;;;;;;4914469;29;20667;-44
2023/01/29 13:14:28;;;;;;;1.83;0.70;;;25.00;52.00;;;;;;4914758;29;20211;-49
2023/01/29 13:17:10;;;;;;;1.13;0.70;;;25.00;52.00;;;;;;4914552;29;20208;-49
2023/01/29 13:19:45;;;;;;;0.90;0.70;;;25.00;52.00;;;;;;4914296;29;20696;-50
2023/01/29 13:22:21;;;;;;;1.55;0.60;;;24.90;52.10;;;;;;4914561;29;20251;-47
2023/01/29 13:24:52;;;;;;;0.90;0.70;;;24.90;52.10;;;;;;4914622;29;20684;-47
2023/01/29 13:27:26;;;;;;;1.17;0.68;;;24.90;52.10;;;;;;4914710;29;20311;-47
2023/01/29 13:29:58;;;;;;;1.65;0.70;;;24.90;52.10;;;;;;4914467;29;20624;-50
2023/01/29 13:32:32;;;;;;;1.38;0.80;;;24.90;52.20;;;;;;4914713;29;20219;-45
2023/01/29 13:35:05;;;;;;;1.20;0.80;;;24.90;52.30;;;;;;4914200;29;20199;-46
2023/01/29 13:37:37;;;;;;;1.27;0.68;;;24.90;52.30;;;;;;4914424;29;20619;-49
2023/01/29 13:40:21;;;;;;;1.27;0.70;;;24.90;52.20;;;;;;4914519;29;20228;-44
2023/01/29 13:42:54;;;;;;;1.13;0.75;;;24.90;52.20;;;;;;4914353;29;20204;-47
2023/01/29 13:45:26;;;;;;;1.00;0.70;;;24.90;52.20;;;;;;4914017;29;20361;-47
2023/01/29 13:48:12;;;;;;;0.70;0.65;;;24.90;52.20;;;;;;4918504;29;20227;-48
2023/01/29 13:50:44;;;;;;;1.92;0.80;;;24.90;52.20;;;;;;4918135;29;20261;-47
2023/01/29 13:53:24;;;;;;;1.25;0.73;;;24.90;52.20;;;;;;4918369;29;20215;-45
2023/01/29 13:55:55;;;;;;;1.17;0.80;;;24.80;52.10;;;;;;4918177;29;20583;-52
2023/01/29 13:58:53;;;;;;;1.10;0.80;;;24.80;52.10;;;;;;4917206;29;20321;-51
2023/01/29 14:01:56;;;;;;;1.35;0.70;;;24.80;52.10;;;;;;4916818;29;20275;-52
2023/01/29 14:04:31;;;;;;;1.23;0.70;;;24.80;52.20;;;;;;4917903;29;20204;-51
2023/01/29 14:07:03;;;;;;;0.90;0.70;;;24.80;52.20;;;;;;4917387;29;20569;-46
2023/01/29 14:10:03;;;;;;;1.10;0.70;;;24.70;52.20;;;;;;4918088;29;20414;-45
2023/01/29 14:12:54;;;;;;;0.75;0.50;;;24.80;52.30;;;;;;4917671;29;20211;-48
2023/01/29 14:15:33;;;;;;;1.00;0.70;;;24.80;52.30;;;;;;4916809;29;20215;-44
2023/01/29 14:18:27;;;;;;;0.77;0.75;;;24.80;52.30;;;;;;4916881;29;20216;-51
2023/01/29 14:21:05;;;;;;;1.02;0.60;;;24.70;52.20;;;;;;4917624;29;20200;-45
2023/01/29 14:23:45;;;;;;;0.77;0.60;;;24.70;52.20;;;;;;4917434;29;20630;-48
2023/01/29 14:26:32;;;;;;;1.40;0.88;;;24.70;52.20;;;;;;4917519;29;20208;-46
2023/01/29 14:29:06;;;;;;;0.90;0.68;;;24.70;52.20;;;;;;4917572;29;20235;-46
2023/01/29 14:31:43;;;;;;;1.20;0.82;;;24.70;52.20;;;;;;4917384;29;20285;-51
2023/01/29 14:34:21;;;;;;;1.25;0.70;;;24.70;52.20;;;;;;4917559;29;20204;-45
2023/01/29 14:36:56;;;;;;;1.45;0.80;;;24.70;52.20;;;;;;4917523;29;20211;-47
2023/01/29 14:39:44;;;;;;;0.85;0.65;;;24.70;52.30;;;;;;4916826;29;20600;-44
2023/01/29 14:42:25;;;;;;;0.65;0.55;;;24.60;52.20;;;;;;4916787;29;20207;-47
2023/01/29 14:45:10;;;;;;;1.35;0.70;;;24.60;52.30;;;;;;4917723;29;20204;-47
2023/01/29 14:48:27;;;;;;;0.77;0.60;;;24.60;52.30;;;;;;4917809;29;20224;-48
2023/01/29 14:51:07;;;;;;;1.98;0.70;;;24.60;52.30;;;;;;4917146;29;20661;-47
2023/01/29 14:54:00;;;;;;;0.85;0.63;;;24.60;52.20;;;;;;4916895;29;20204;-47
2023/01/29 14:56:35;;;;;;;0.82;0.60;;;24.60;52.30;;;;;;4916423;29;20215;-47
2023/01/29 14:59:15;;;;;;;1.13;0.65;;;24.50;52.30;;;;;;4916100;29;20231;-47
2023/01/29 15:01:53;;;;;;;0.70;0.60;;;24.60;52.30;;;;;;4917113;29;20200;-47
2023/01/29 15:04:28;;;;;;;0.63;0.60;;;24.60;52.30;;;;;;4917221;29;20377;-49
2023/01/29 15:07:05;;;;;;;0.60;0.60;;;24.50;52.30;;;;;;4916709;29;20622;-46
2023/01/29 15:09:44;;;;;;;0.98;0.68;;;24.50;52.30;;;;;;4916458;29;20235;-44
2023/01/29 15:12:25;;;;;;;0.93;0.60;;;24.50;52.30;;;;;;4917016;29;20204;-44
2023/01/29 15:15:07;;;;;;;1.20;0.60;;;24.50;52.30;;;;;;4916465;29;20241;-45
2023/01/29 15:17:43;;;;;;;2.08;0.70;;;24.50;52.30;;;;;;4916397;29;20223;-47
2023/01/29 15:20:34;;;;;;;0.65;0.65;;;24.50;52.30;;;;;;4916159;29;20235;-44
2023/01/29 15:23:05;;;;;;;0.82;0.73;;;24.50;52.30;;;;;;4916581;29;20212;-44
2023/01/29 15:25:49;;;;;;;0.80;0.73;;;24.50;52.30;;;;;;4916783;29;20227;-46
2023/01/29 15:28:21;;;;;;;1.25;0.60;;;24.50;52.40;;;;;;4916851;29;20220;-44
2023/01/29 15:30:56;;;;;;;1.05;0.63;;;24.50;52.40;;;;;;4916642;29;20208;-45
2023/01/29 15:33:27;;;;;;;0.80;0.70;;;24.50;52.40;;;;;;4916276;29;20195;-49
2023/01/29 15:36:00;;;;;;;0.75;0.60;;;24.40;52.30;;;;;;4915679;29;20211;-49
2023/01/29 15:38:31;;;;;;;0.60;0.60;;;24.50;52.40;;;;;;4915633;29;20715;-47
2023/01/29 15:41:05;;;;;;;0.60;0.50;;;24.40;52.40;;;;;;4916405;29;20200;-47
2023/01/29 15:43:44;;;;;;;0.60;0.60;;;24.40;52.30;;;;;;4916435;29;20204;-46
2023/01/29 15:46:27;;;;;;;0.60;0.60;;;24.50;52.40;;;;;;4916762;29;20215;-47
2023/01/29 15:48:59;;;;;;;0.60;0.60;;;24.40;52.30;;;;;;4915772;29;20265;-46
2023/01/29 15:51:31;;;;;;;0.88;0.70;;;24.40;52.30;;;;;;4915343;29;20562;-46
2023/01/29 15:54:03;;;;;;;1.08;0.60;;;24.40;52.30;;;;;;4915922;29;20200;-47
2023/01/29 15:56:38;;;;;;;1.00;0.70;;;24.40;52.30;;;;;;4915689;29;20239;-47
2023/01/29 15:59:16;;;;;;;0.93;0.70;;;24.40;52.30;;;;;;4915657;29;20231;-49
2023/01/29 16:01:47;;;;;;;0.65;0.65;;;24.40;52.30;;;;;;4915752;29;20676;-48
2023/01/29 16:04:23;;;;;;;1.38;0.60;;;24.40;52.30;;;;;;4915458;29;20204;-47
2023/01/29 16:06:55;;;;;;;1.48;0.70;;;24.40;52.40;;;;;;4914609;29;20200;-47
2023/01/29 16:09:29;;;;;;;0.70;0.70;;;24.40;52.40;;;;;;4915253;29;20596;-46
2023/01/29 16:12:02;;;;;;;1.20;0.60;;;24.30;52.30;;;;;;4913726;29;20200;-47
2023/01/29 16:14:33;;;;;;;0.98;0.70;;;24.30;52.40;;;;;;4915327;29;20204;-48
2023/01/29 16:17:24;;;;;;;0.73;0.70;;;24.40;52.40;;;;;;4914991;29;20212;-48
2023/01/29 16:20:01;;;;;;;0.70;0.57;;;24.30;52.40;;;;;;4915043;29;20235;-50
2023/01/29 16:22:34;;;;;;;0.98;0.65;;;24.30;52.30;;;;;;4915357;29;20648;-46
2023/01/29 16:25:06;;;;;;;0.73;0.50;;;24.30;52.30;;;;;;4915424;29;20200;-46
2023/01/29 16:27:42;;;;;;;0.50;0.50;;;24.30;52.30;;;;;;4915345;29;20220;-46
2023/01/29 16:30:15;;;;;;;0.88;0.68;;;24.30;52.30;;;;;;4915573;29;20200;-48
2023/01/29 16:32:46;;;;;;;0.60;0.60;;;24.30;52.40;;;;;;4915389;29;20208;-47
2023/01/29 16:35:17;;;;;;;0.70;0.60;;;24.30;52.30;;;;;;4915008;29;20220;-49
2023/01/29 16:37:51;;;;;;;0.82;0.70;;;24.30;52.40;;;;;;4915139;29;20224;-48
2023/01/29 16:40:31;;;;;;;0.60;0.60;;;24.30;52.40;;;;;;4915337;29;20232;-46